sensor_id;sensor_type;location;lat;lon;timestamp;P1;durP1;ratioP1;P2;durP2;ratioP2
11348;SDS011;5729;43.570;27.826;2022-10-13T00:02:24;5.10;;;3.05;;
11348;SDS011;5729;43.570;27.826;2022-10-13T00:04:50;11.70;;;3.50;;
11348;SDS011;5729;43.570;27.826;2022-10-13T00:07:15;5.55;;;3.10;;
11348;SDS011;5729;43.570;27.826;2022-10-13T00:09:40;5.45;;;3.58;;
11348;SDS011;5729;43.570;27.826;2022-10-13T00:12:06;4.90;;;3.10;;
11348;SDS011;5729;43.570;27.826;2022-10-13T00:14:31;3.25;;;2.85;;
11348;SDS011;5729;43.570;27.826;2022-10-13T00:16:57;4.15;;;2.97;;
11348;SDS011;5729;43.570;27.826;2022-10-13T00:19:22;5.35;;;2.70;;
11348;SDS011;5729;43.570;27.826;2022-10-13T00:21:48;6.00;;;3.42;;
11348;SDS011;5729;43.570;27.826;2022-10-13T00:24:13;6.90;;;3.47;;
11348;SDS011;5729;43.570;27.826;2022-10-13T00:26:39;8.52;;;3.42;;
11348;SDS011;5729;43.570;27.826;2022-10-13T00:29:04;7.57;;;2.97;;
11348;SDS011;5729;43.570;27.826;2022-10-13T00:31:30;7.90;;;3.47;;
11348;SDS011;5729;43.570;27.826;2022-10-13T00:33:57;6.25;;;3.88;;
11348;SDS011;5729;43.570;27.826;2022-10-13T00:36:24;6.57;;;3.08;;
11348;SDS011;5729;43.570;27.826;2022-10-13T00:38:50;5.88;;;3.03;;
11348;SDS011;5729;43.570;27.826;2022-10-13T00:41:16;4.07;;;2.67;;
11348;SDS011;5729;43.570;27.826;2022-10-13T00:43:53;4.47;;;2.92;;
11348;SDS011;5729;43.570;27.826;2022-10-13T00:46:33;7.47;;;3.42;;
11348;SDS011;5729;43.570;27.826;2022-10-13T00:49:02;8.13;;;3.17;;
11348;SDS011;5729;43.570;27.826;2022-10-13T00:51:31;6.03;;;2.88;;
11348;SDS011;5729;43.570;27.826;2022-10-13T00:53:59;3.03;;;2.58;;
11348;SDS011;5729;43.570;27.826;2022-10-13T00:56:27;6.80;;;2.95;;
11348;SDS011;5729;43.570;27.826;2022-10-13T00:58:53;5.68;;;2.70;;
11348;SDS011;5729;43.570;27.826;2022-10-13T01:01:20;3.35;;;2.70;;
11348;SDS011;5729;43.570;27.826;2022-10-13T01:03:45;5.78;;;3.30;;
11348;SDS011;5729;43.570;27.826;2022-10-13T01:06:12;10.43;;;3.03;;
11348;SDS011;5729;43.570;27.826;2022-10-13T01:08:39;8.75;;;2.88;;
11348;SDS011;5729;43.570;27.826;2022-10-13T01:11:12;7.32;;;2.92;;
11348;SDS011;5729;43.570;27.826;2022-10-13T01:14:42;3.47;;;3.00;;
11348;SDS011;5729;43.570;27.826;2022-10-13T01:17:01;7.97;;;3.42;;
11348;SDS011;5729;43.570;27.826;2022-10-13T01:22:18;4.82;;;2.78;;
11348;SDS011;5729;43.570;27.826;2022-10-13T01:30:36;8.05;;;2.97;;
11348;SDS011;5729;43.570;27.826;2022-10-13T01:41:09;4.93;;;2.80;;
11348;SDS011;5729;43.570;27.826;2022-10-13T01:43:44;5.22;;;2.88;;
11348;SDS011;5729;43.570;27.826;2022-10-13T01:46:31;3.50;;;2.70;;
11348;SDS011;5729;43.570;27.826;2022-10-13T01:49:00;9.30;;;3.20;;
11348;SDS011;5729;43.570;27.826;2022-10-13T01:51:29;4.20;;;2.67;;
11348;SDS011;5729;43.570;27.826;2022-10-13T01:53:56;5.05;;;3.33;;
11348;SDS011;5729;43.570;27.826;2022-10-13T01:56:22;3.92;;;3.10;;
11348;SDS011;5729;43.570;27.826;2022-10-13T01:58:48;7.00;;;3.28;;
11348;SDS011;5729;43.570;27.826;2022-10-13T02:04:09;5.15;;;3.08;;
11348;SDS011;5729;43.570;27.826;2022-10-13T02:06:58;10.18;;;3.28;;
11348;SDS011;5729;43.570;27.826;2022-10-13T02:12:30;5.28;;;3.42;;
11348;SDS011;5729;43.570;27.826;2022-10-13T02:15:01;4.43;;;3.30;;
11348;SDS011;5729;43.570;27.826;2022-10-13T02:17:28;5.35;;;3.60;;
11348;SDS011;5729;43.570;27.826;2022-10-13T02:19:55;8.05;;;4.18;;
11348;SDS011;5729;43.570;27.826;2022-10-13T02:22:23;9.05;;;4.43;;
11348;SDS011;5729;43.570;27.826;2022-10-13T02:24:54;9.68;;;4.15;;
11348;SDS011;5729;43.570;27.826;2022-10-13T02:27:20;8.63;;;4.45;;
11348;SDS011;5729;43.570;27.826;2022-10-13T02:29:50;6.63;;;4.07;;
11348;SDS011;5729;43.570;27.826;2022-10-13T02:32:18;6.00;;;3.58;;
11348;SDS011;5729;43.570;27.826;2022-10-13T02:34:43;4.30;;;3.30;;
11348;SDS011;5729;43.570;27.826;2022-10-13T02:37:09;9.02;;;3.65;;
11348;SDS011;5729;43.570;27.826;2022-10-13T02:39:35;5.68;;;3.88;;
11348;SDS011;5729;43.570;27.826;2022-10-13T02:42:00;9.05;;;3.78;;
11348;SDS011;5729;43.570;27.826;2022-10-13T02:44:26;10.95;;;4.43;;
11348;SDS011;5729;43.570;27.826;2022-10-13T02:46:51;9.35;;;4.20;;
11348;SDS011;5729;43.570;27.826;2022-10-13T02:49:16;5.15;;;4.30;;
11348;SDS011;5729;43.570;27.826;2022-10-13T02:51:42;6.25;;;3.95;;
11348;SDS011;5729;43.570;27.826;2022-10-13T02:54:08;10.13;;;4.00;;
11348;SDS011;5729;43.570;27.826;2022-10-13T02:56:33;9.25;;;4.07;;
11348;SDS011;5729;43.570;27.826;2022-10-13T02:58:58;7.57;;;3.97;;
11348;SDS011;5729;43.570;27.826;2022-10-13T03:01:24;7.68;;;3.80;;
11348;SDS011;5729;43.570;27.826;2022-10-13T03:03:49;9.32;;;4.43;;
11348;SDS011;5729;43.570;27.826;2022-10-13T03:06:15;5.72;;;4.03;;
11348;SDS011;5729;43.570;27.826;2022-10-13T03:08:40;8.38;;;3.97;;
11348;SDS011;5729;43.570;27.826;2022-10-13T03:11:06;7.60;;;3.75;;
11348;SDS011;5729;43.570;27.826;2022-10-13T03:13:31;7.13;;;5.00;;
11348;SDS011;5729;43.570;27.826;2022-10-13T03:15:57;10.48;;;4.45;;
11348;SDS011;5729;43.570;27.826;2022-10-13T03:18:22;10.00;;;5.88;;
11348;SDS011;5729;43.570;27.826;2022-10-13T03:20:54;12.50;;;6.82;;
11348;SDS011;5729;43.570;27.826;2022-10-13T03:23:21;9.80;;;5.93;;
11348;SDS011;5729;43.570;27.826;2022-10-13T03:25:46;11.07;;;6.35;;
11348;SDS011;5729;43.570;27.826;2022-10-13T03:28:12;15.88;;;8.27;;
11348;SDS011;5729;43.570;27.826;2022-10-13T03:30:37;8.32;;;5.55;;
11348;SDS011;5729;43.570;27.826;2022-10-13T03:33:03;8.70;;;4.40;;
11348;SDS011;5729;43.570;27.826;2022-10-13T03:35:28;7.05;;;4.05;;
11348;SDS011;5729;43.570;27.826;2022-10-13T03:37:54;11.95;;;4.97;;
11348;SDS011;5729;43.570;27.826;2022-10-13T03:40:19;7.55;;;4.65;;
11348;SDS011;5729;43.570;27.826;2022-10-13T03:42:45;9.35;;;5.85;;
11348;SDS011;5729;43.570;27.826;2022-10-13T03:45:10;6.35;;;4.07;;
11348;SDS011;5729;43.570;27.826;2022-10-13T03:47:36;8.30;;;4.72;;
11348;SDS011;5729;43.570;27.826;2022-10-13T03:50:02;5.63;;;4.25;;
11348;SDS011;5729;43.570;27.826;2022-10-13T03:52:29;6.20;;;4.07;;
11348;SDS011;5729;43.570;27.826;2022-10-13T03:54:54;7.63;;;4.43;;
11348;SDS011;5729;43.570;27.826;2022-10-13T03:57:20;12.32;;;4.88;;
11348;SDS011;5729;43.570;27.826;2022-10-13T03:59:45;9.52;;;4.57;;
11348;SDS011;5729;43.570;27.826;2022-10-13T04:02:11;16.65;;;7.85;;
11348;SDS011;5729;43.570;27.826;2022-10-13T04:04:37;12.48;;;4.50;;
11348;SDS011;5729;43.570;27.826;2022-10-13T04:07:03;9.00;;;4.82;;
11348;SDS011;5729;43.570;27.826;2022-10-13T04:09:29;14.40;;;5.05;;
11348;SDS011;5729;43.570;27.826;2022-10-13T04:11:54;13.18;;;4.68;;
11348;SDS011;5729;43.570;27.826;2022-10-13T04:14:19;12.88;;;5.22;;
11348;SDS011;5729;43.570;27.826;2022-10-13T04:16:45;7.88;;;4.30;;
11348;SDS011;5729;43.570;27.826;2022-10-13T04:19:12;6.97;;;4.60;;
11348;SDS011;5729;43.570;27.826;2022-10-13T04:21:38;12.35;;;5.05;;
11348;SDS011;5729;43.570;27.826;2022-10-13T04:24:04;6.15;;;3.90;;
11348;SDS011;5729;43.570;27.826;2022-10-13T04:26:32;8.07;;;4.13;;
11348;SDS011;5729;43.570;27.826;2022-10-13T04:29:01;15.48;;;3.90;;
11348;SDS011;5729;43.570;27.826;2022-10-13T04:31:28;8.27;;;4.10;;
11348;SDS011;5729;43.570;27.826;2022-10-13T04:33:54;7.57;;;3.78;;
11348;SDS011;5729;43.570;27.826;2022-10-13T04:36:20;10.02;;;4.05;;
11348;SDS011;5729;43.570;27.826;2022-10-13T04:38:46;8.57;;;3.97;;
11348;SDS011;5729;43.570;27.826;2022-10-13T04:41:13;9.80;;;3.80;;
11348;SDS011;5729;43.570;27.826;2022-10-13T04:43:40;6.10;;;3.63;;
11348;SDS011;5729;43.570;27.826;2022-10-13T04:46:07;13.50;;;4.57;;
11348;SDS011;5729;43.570;27.826;2022-10-13T04:48:34;11.57;;;4.32;;
11348;SDS011;5729;43.570;27.826;2022-10-13T04:51:00;9.85;;;4.30;;
11348;SDS011;5729;43.570;27.826;2022-10-13T04:53:27;6.57;;;3.78;;
11348;SDS011;5729;43.570;27.826;2022-10-13T04:55:54;11.65;;;5.07;;
11348;SDS011;5729;43.570;27.826;2022-10-13T04:58:20;9.70;;;5.43;;
11348;SDS011;5729;43.570;27.826;2022-10-13T05:00:46;16.50;;;6.82;;
11348;SDS011;5729;43.570;27.826;2022-10-13T05:03:12;23.75;;;7.13;;
11348;SDS011;5729;43.570;27.826;2022-10-13T05:05:38;18.52;;;5.65;;
11348;SDS011;5729;43.570;27.826;2022-10-13T05:08:04;20.63;;;5.82;;
11348;SDS011;5729;43.570;27.826;2022-10-13T05:10:30;28.95;;;6.10;;
11348;SDS011;5729;43.570;27.826;2022-10-13T05:12:55;10.93;;;4.57;;
11348;SDS011;5729;43.570;27.826;2022-10-13T05:15:20;20.65;;;5.35;;
11348;SDS011;5729;43.570;27.826;2022-10-13T05:17:46;15.75;;;5.65;;
11348;SDS011;5729;43.570;27.826;2022-10-13T05:20:11;17.58;;;6.25;;
11348;SDS011;5729;43.570;27.826;2022-10-13T05:22:37;13.73;;;6.65;;
11348;SDS011;5729;43.570;27.826;2022-10-13T05:25:02;17.75;;;6.45;;
11348;SDS011;5729;43.570;27.826;2022-10-13T05:27:28;27.55;;;7.95;;
11348;SDS011;5729;43.570;27.826;2022-10-13T05:29:54;21.10;;;6.45;;
11348;SDS011;5729;43.570;27.826;2022-10-13T05:32:19;16.88;;;7.47;;
11348;SDS011;5729;43.570;27.826;2022-10-13T05:34:46;18.88;;;6.55;;
11348;SDS011;5729;43.570;27.826;2022-10-13T05:37:12;10.82;;;6.60;;
11348;SDS011;5729;43.570;27.826;2022-10-13T05:39:40;18.90;;;6.93;;
11348;SDS011;5729;43.570;27.826;2022-10-13T05:42:06;18.67;;;6.20;;
11348;SDS011;5729;43.570;27.826;2022-10-13T05:44:32;15.00;;;5.65;;
11348;SDS011;5729;43.570;27.826;2022-10-13T05:46:57;13.27;;;5.55;;
11348;SDS011;5729;43.570;27.826;2022-10-13T05:49:23;13.50;;;5.05;;
11348;SDS011;5729;43.570;27.826;2022-10-13T05:51:49;11.50;;;5.28;;
11348;SDS011;5729;43.570;27.826;2022-10-13T05:57:21;12.32;;;5.47;;
11348;SDS011;5729;43.570;27.826;2022-10-13T05:59:51;8.90;;;4.55;;
11348;SDS011;5729;43.570;27.826;2022-10-13T06:02:20;10.82;;;4.85;;
11348;SDS011;5729;43.570;27.826;2022-10-13T06:04:49;12.30;;;5.47;;
11348;SDS011;5729;43.570;27.826;2022-10-13T06:07:19;11.90;;;5.10;;
11348;SDS011;5729;43.570;27.826;2022-10-13T06:09:46;19.50;;;5.60;;
11348;SDS011;5729;43.570;27.826;2022-10-13T06:12:12;14.15;;;5.57;;
11348;SDS011;5729;43.570;27.826;2022-10-13T06:14:37;9.63;;;5.30;;
11348;SDS011;5729;43.570;27.826;2022-10-13T06:17:03;13.85;;;4.82;;
11348;SDS011;5729;43.570;27.826;2022-10-13T06:19:29;15.00;;;5.15;;
11348;SDS011;5729;43.570;27.826;2022-10-13T06:21:54;12.25;;;4.95;;
11348;SDS011;5729;43.570;27.826;2022-10-13T06:24:19;11.48;;;4.60;;
11348;SDS011;5729;43.570;27.826;2022-10-13T06:26:45;10.00;;;4.55;;
11348;SDS011;5729;43.570;27.826;2022-10-13T06:29:10;15.93;;;4.75;;
11348;SDS011;5729;43.570;27.826;2022-10-13T06:31:36;13.15;;;4.45;;
11348;SDS011;5729;43.570;27.826;2022-10-13T06:34:01;8.88;;;4.68;;
11348;SDS011;5729;43.570;27.826;2022-10-13T06:36:27;8.93;;;4.90;;
11348;SDS011;5729;43.570;27.826;2022-10-13T06:38:52;8.63;;;4.25;;
11348;SDS011;5729;43.570;27.826;2022-10-13T06:41:18;9.07;;;5.18;;
11348;SDS011;5729;43.570;27.826;2022-10-13T06:43:44;8.00;;;4.63;;
11348;SDS011;5729;43.570;27.826;2022-10-13T06:46:09;11.68;;;5.28;;
11348;SDS011;5729;43.570;27.826;2022-10-13T06:48:36;13.05;;;5.13;;
11348;SDS011;5729;43.570;27.826;2022-10-13T06:51:02;9.70;;;5.10;;
11348;SDS011;5729;43.570;27.826;2022-10-13T06:53:30;11.88;;;5.93;;
11348;SDS011;5729;43.570;27.826;2022-10-13T06:55:56;10.70;;;5.20;;
11348;SDS011;5729;43.570;27.826;2022-10-13T06:58:23;13.88;;;5.68;;
11348;SDS011;5729;43.570;27.826;2022-10-13T07:00:48;9.75;;;5.32;;
11348;SDS011;5729;43.570;27.826;2022-10-13T07:03:14;15.63;;;4.95;;
11348;SDS011;5729;43.570;27.826;2022-10-13T07:05:39;8.95;;;5.40;;
11348;SDS011;5729;43.570;27.826;2022-10-13T07:08:05;10.75;;;5.45;;
11348;SDS011;5729;43.570;27.826;2022-10-13T07:10:30;12.13;;;5.68;;
11348;SDS011;5729;43.570;27.826;2022-10-13T07:12:56;13.38;;;5.30;;
11348;SDS011;5729;43.570;27.826;2022-10-13T07:15:21;10.43;;;4.60;;
11348;SDS011;5729;43.570;27.826;2022-10-13T07:17:49;8.50;;;5.30;;
11348;SDS011;5729;43.570;27.826;2022-10-13T07:20:17;8.32;;;3.97;;
11348;SDS011;5729;43.570;27.826;2022-10-13T07:22:43;10.80;;;3.72;;
11348;SDS011;5729;43.570;27.826;2022-10-13T07:25:09;6.65;;;2.53;;
11348;SDS011;5729;43.570;27.826;2022-10-13T07:27:35;6.53;;;2.88;;
11348;SDS011;5729;43.570;27.826;2022-10-13T07:30:02;6.03;;;2.25;;
11348;SDS011;5729;43.570;27.826;2022-10-13T07:32:29;2.47;;;2.00;;
11348;SDS011;5729;43.570;27.826;2022-10-13T07:34:56;2.45;;;2.10;;
11348;SDS011;5729;43.570;27.826;2022-10-13T07:37:21;4.25;;;1.88;;
11348;SDS011;5729;43.570;27.826;2022-10-13T07:39:47;3.25;;;1.65;;
11348;SDS011;5729;43.570;27.826;2022-10-13T07:42:13;4.82;;;2.17;;
11348;SDS011;5729;43.570;27.826;2022-10-13T07:44:38;3.97;;;1.70;;
11348;SDS011;5729;43.570;27.826;2022-10-13T07:47:04;3.83;;;2.05;;
11348;SDS011;5729;43.570;27.826;2022-10-13T07:49:30;4.70;;;2.10;;
11348;SDS011;5729;43.570;27.826;2022-10-13T07:51:55;29.77;;;3.10;;
11348;SDS011;5729;43.570;27.826;2022-10-13T07:54:21;9.38;;;2.28;;
11348;SDS011;5729;43.570;27.826;2022-10-13T07:56:49;8.38;;;2.90;;
11348;SDS011;5729;43.570;27.826;2022-10-13T07:59:16;8.93;;;3.33;;
11348;SDS011;5729;43.570;27.826;2022-10-13T08:01:42;4.10;;;1.77;;
11348;SDS011;5729;43.570;27.826;2022-10-13T08:04:07;7.10;;;2.03;;
11348;SDS011;5729;43.570;27.826;2022-10-13T08:06:33;5.50;;;1.98;;
11348;SDS011;5729;43.570;27.826;2022-10-13T08:08:58;3.53;;;2.60;;
11348;SDS011;5729;43.570;27.826;2022-10-13T08:11:25;3.55;;;1.75;;
11348;SDS011;5729;43.570;27.826;2022-10-13T08:13:51;3.33;;;1.70;;
11348;SDS011;5729;43.570;27.826;2022-10-13T08:16:17;7.63;;;3.08;;
11348;SDS011;5729;43.570;27.826;2022-10-13T08:18:43;3.53;;;1.63;;
11348;SDS011;5729;43.570;27.826;2022-10-13T08:21:11;2.70;;;1.40;;
11348;SDS011;5729;43.570;27.826;2022-10-13T08:23:37;7.32;;;3.67;;
11348;SDS011;5729;43.570;27.826;2022-10-13T08:26:03;7.57;;;2.40;;
11348;SDS011;5729;43.570;27.826;2022-10-13T08:28:29;6.10;;;2.42;;
11348;SDS011;5729;43.570;27.826;2022-10-13T08:30:55;2.22;;;1.67;;
11348;SDS011;5729;43.570;27.826;2022-10-13T08:33:22;5.80;;;2.50;;
11348;SDS011;5729;43.570;27.826;2022-10-13T08:35:51;3.65;;;2.00;;
11348;SDS011;5729;43.570;27.826;2022-10-13T08:38:17;3.38;;;2.00;;
11348;SDS011;5729;43.570;27.826;2022-10-13T08:40:46;3.33;;;2.22;;
11348;SDS011;5729;43.570;27.826;2022-10-13T08:43:14;2.95;;;1.60;;
11348;SDS011;5729;43.570;27.826;2022-10-13T08:45:42;5.80;;;1.75;;
11348;SDS011;5729;43.570;27.826;2022-10-13T08:48:10;6.43;;;1.55;;
11348;SDS011;5729;43.570;27.826;2022-10-13T08:50:41;5.15;;;1.75;;
11348;SDS011;5729;43.570;27.826;2022-10-13T08:53:17;7.28;;;1.55;;
11348;SDS011;5729;43.570;27.826;2022-10-13T08:56:08;8.50;;;1.90;;
11348;SDS011;5729;43.570;27.826;2022-10-13T08:58:40;3.30;;;1.30;;
11348;SDS011;5729;43.570;27.826;2022-10-13T09:06:22;2.15;;;1.75;;
11348;SDS011;5729;43.570;27.826;2022-10-13T09:09:00;3.33;;;1.92;;
11348;SDS011;5729;43.570;27.826;2022-10-13T09:11:29;4.30;;;1.40;;
11348;SDS011;5729;43.570;27.826;2022-10-13T09:13:58;3.78;;;1.40;;
11348;SDS011;5729;43.570;27.826;2022-10-13T09:16:27;4.55;;;1.40;;
11348;SDS011;5729;43.570;27.826;2022-10-13T09:19:00;5.00;;;1.50;;
11348;SDS011;5729;43.570;27.826;2022-10-13T09:27:38;1.77;;;1.30;;
11348;SDS011;5729;43.570;27.826;2022-10-13T09:30:57;3.03;;;1.30;;
11348;SDS011;5729;43.570;27.826;2022-10-13T09:35:36;6.30;;;1.77;;
11348;SDS011;5729;43.570;27.826;2022-10-13T09:38:24;3.35;;;1.58;;
11348;SDS011;5729;43.570;27.826;2022-10-13T09:44:05;4.18;;;1.63;;
11348;SDS011;5729;43.570;27.826;2022-10-13T09:46:29;3.03;;;1.45;;
11348;SDS011;5729;43.570;27.826;2022-10-13T09:48:58;2.40;;;1.33;;
11348;SDS011;5729;43.570;27.826;2022-10-13T09:51:29;2.53;;;1.63;;
11348;SDS011;5729;43.570;27.826;2022-10-13T09:53:57;3.60;;;1.90;;
11348;SDS011;5729;43.570;27.826;2022-10-13T09:56:38;7.10;;;1.48;;
11348;SDS011;5729;43.570;27.826;2022-10-13T10:01:46;2.08;;;1.23;;
11348;SDS011;5729;43.570;27.826;2022-10-13T10:04:18;3.17;;;1.40;;
11348;SDS011;5729;43.570;27.826;2022-10-13T10:06:47;5.32;;;2.13;;
11348;SDS011;5729;43.570;27.826;2022-10-13T10:12:00;4.93;;;1.30;;
11348;SDS011;5729;43.570;27.826;2022-10-13T10:14:31;7.30;;;1.58;;
11348;SDS011;5729;43.570;27.826;2022-10-13T10:17:11;2.67;;;1.10;;
11348;SDS011;5729;43.570;27.826;2022-10-13T10:22:54;7.15;;;1.70;;
11348;SDS011;5729;43.570;27.826;2022-10-13T10:30:58;2.53;;;1.58;;
11348;SDS011;5729;43.570;27.826;2022-10-13T10:33:48;5.00;;;1.98;;
11348;SDS011;5729;43.570;27.826;2022-10-13T10:36:18;1.63;;;1.50;;
11348;SDS011;5729;43.570;27.826;2022-10-13T10:38:55;6.57;;;1.55;;
11348;SDS011;5729;43.570;27.826;2022-10-13T10:44:16;2.40;;;1.30;;
11348;SDS011;5729;43.570;27.826;2022-10-13T10:46:49;1.75;;;1.30;;
11348;SDS011;5729;43.570;27.826;2022-10-13T10:49:18;2.00;;;1.80;;
11348;SDS011;5729;43.570;27.826;2022-10-13T10:51:49;3.90;;;1.45;;
11348;SDS011;5729;43.570;27.826;2022-10-13T10:57:22;4.15;;;1.67;;
11348;SDS011;5729;43.570;27.826;2022-10-13T11:00:08;2.92;;;1.20;;
11348;SDS011;5729;43.570;27.826;2022-10-13T11:05:12;1.85;;;1.25;;
11348;SDS011;5729;43.570;27.826;2022-10-13T11:21:18;2.85;;;1.45;;
11348;SDS011;5729;43.570;27.826;2022-10-13T11:23:44;4.75;;;1.50;;
11348;SDS011;5729;43.570;27.826;2022-10-13T11:26:40;4.03;;;1.38;;
11348;SDS011;5729;43.570;27.826;2022-10-13T11:29:14;7.70;;;1.80;;
11348;SDS011;5729;43.570;27.826;2022-10-13T11:31:46;2.85;;;1.45;;
11348;SDS011;5729;43.570;27.826;2022-10-13T11:34:26;5.72;;;1.90;;
11348;SDS011;5729;43.570;27.826;2022-10-13T11:36:54;21.38;;;2.47;;
11348;SDS011;5729;43.570;27.826;2022-10-13T11:53:09;2.67;;;2.20;;
11348;SDS011;5729;43.570;27.826;2022-10-13T11:55:49;4.68;;;2.08;;
11348;SDS011;5729;43.570;27.826;2022-10-13T12:00:51;3.72;;;2.08;;
11348;SDS011;5729;43.570;27.826;2022-10-13T12:03:49;6.75;;;2.53;;
11348;SDS011;5729;43.570;27.826;2022-10-13T12:08:50;9.02;;;2.72;;
11348;SDS011;5729;43.570;27.826;2022-10-13T12:14:28;4.47;;;2.47;;
11348;SDS011;5729;43.570;27.826;2022-10-13T12:16:57;5.15;;;2.40;;
11348;SDS011;5729;43.570;27.826;2022-10-13T12:19:25;4.85;;;2.22;;
11348;SDS011;5729;43.570;27.826;2022-10-13T12:21:56;1.98;;;1.88;;
11348;SDS011;5729;43.570;27.826;2022-10-13T12:24:24;8.77;;;2.28;;
11348;SDS011;5729;43.570;27.826;2022-10-13T12:26:51;8.40;;;2.72;;
11348;SDS011;5729;43.570;27.826;2022-10-13T12:29:18;8.68;;;3.00;;
11348;SDS011;5729;43.570;27.826;2022-10-13T12:31:48;5.50;;;2.78;;
11348;SDS011;5729;43.570;27.826;2022-10-13T12:36:58;6.03;;;2.70;;
11348;SDS011;5729;43.570;27.826;2022-10-13T12:39:27;7.00;;;2.90;;
11348;SDS011;5729;43.570;27.826;2022-10-13T12:41:55;5.88;;;2.95;;
11348;SDS011;5729;43.570;27.826;2022-10-13T12:44:26;5.10;;;2.95;;
11348;SDS011;5729;43.570;27.826;2022-10-13T12:46:53;5.82;;;3.28;;
11348;SDS011;5729;43.570;27.826;2022-10-13T12:49:33;9.40;;;3.22;;
11348;SDS011;5729;43.570;27.826;2022-10-13T12:55:17;6.43;;;2.40;;
11348;SDS011;5729;43.570;27.826;2022-10-13T12:57:44;3.47;;;3.17;;
11348;SDS011;5729;43.570;27.826;2022-10-13T13:02:53;3.53;;;2.50;;
11348;SDS011;5729;43.570;27.826;2022-10-13T13:07:58;7.88;;;2.28;;
11348;SDS011;5729;43.570;27.826;2022-10-13T13:10:24;2.40;;;2.20;;
11348;SDS011;5729;43.570;27.826;2022-10-13T13:12:52;3.17;;;1.95;;
11348;SDS011;5729;43.570;27.826;2022-10-13T13:15:35;4.47;;;1.83;;
11348;SDS011;5729;43.570;27.826;2022-10-13T13:21:08;3.38;;;1.65;;
11348;SDS011;5729;43.570;27.826;2022-10-13T13:23:39;6.32;;;1.88;;
11348;SDS011;5729;43.570;27.826;2022-10-13T13:26:09;6.32;;;1.90;;
11348;SDS011;5729;43.570;27.826;2022-10-13T13:28:36;13.07;;;2.28;;
11348;SDS011;5729;43.570;27.826;2022-10-13T13:31:02;4.22;;;1.65;;
11348;SDS011;5729;43.570;27.826;2022-10-13T13:33:27;3.95;;;1.83;;
11348;SDS011;5729;43.570;27.826;2022-10-13T13:35:53;2.47;;;1.55;;
11348;SDS011;5729;43.570;27.826;2022-10-13T13:38:18;5.43;;;1.80;;
11348;SDS011;5729;43.570;27.826;2022-10-13T13:40:44;3.88;;;1.55;;
11348;SDS011;5729;43.570;27.826;2022-10-13T13:43:09;8.82;;;1.88;;
11348;SDS011;5729;43.570;27.826;2022-10-13T13:45:35;1.55;;;1.30;;
11348;SDS011;5729;43.570;27.826;2022-10-13T13:48:01;5.68;;;1.30;;
11348;SDS011;5729;43.570;27.826;2022-10-13T13:50:32;3.15;;;1.23;;
11348;SDS011;5729;43.570;27.826;2022-10-13T13:52:59;1.98;;;1.00;;
11348;SDS011;5729;43.570;27.826;2022-10-13T13:55:25;4.25;;;1.27;;
11348;SDS011;5729;43.570;27.826;2022-10-13T13:57:51;4.97;;;1.30;;
11348;SDS011;5729;43.570;27.826;2022-10-13T14:00:17;4.22;;;1.42;;
11348;SDS011;5729;43.570;27.826;2022-10-13T14:02:43;3.22;;;1.33;;
11348;SDS011;5729;43.570;27.826;2022-10-13T14:05:10;3.55;;;1.40;;
11348;SDS011;5729;43.570;27.826;2022-10-13T14:07:36;4.63;;;1.60;;
11348;SDS011;5729;43.570;27.826;2022-10-13T14:10:02;3.13;;;0.98;;
11348;SDS011;5729;43.570;27.826;2022-10-13T14:12:28;8.65;;;1.27;;
11348;SDS011;5729;43.570;27.826;2022-10-13T14:14:54;3.08;;;1.73;;
11348;SDS011;5729;43.570;27.826;2022-10-13T14:17:21;7.35;;;1.88;;
11348;SDS011;5729;43.570;27.826;2022-10-13T14:19:47;10.35;;;1.55;;
11348;SDS011;5729;43.570;27.826;2022-10-13T14:22:12;4.90;;;1.40;;
11348;SDS011;5729;43.570;27.826;2022-10-13T14:24:38;4.65;;;1.30;;
11348;SDS011;5729;43.570;27.826;2022-10-13T14:27:03;3.17;;;1.40;;
11348;SDS011;5729;43.570;27.826;2022-10-13T14:29:29;6.10;;;1.30;;
11348;SDS011;5729;43.570;27.826;2022-10-13T14:31:54;3.90;;;1.52;;
11348;SDS011;5729;43.570;27.826;2022-10-13T14:34:20;4.20;;;1.13;;
11348;SDS011;5729;43.570;27.826;2022-10-13T14:36:45;10.70;;;1.58;;
11348;SDS011;5729;43.570;27.826;2022-10-13T14:39:12;5.10;;;1.63;;
11348;SDS011;5729;43.570;27.826;2022-10-13T14:41:37;5.07;;;1.83;;
11348;SDS011;5729;43.570;27.826;2022-10-13T14:44:03;3.80;;;1.20;;
11348;SDS011;5729;43.570;27.826;2022-10-13T14:46:28;2.30;;;1.15;;
11348;SDS011;5729;43.570;27.826;2022-10-13T14:48:54;6.43;;;1.30;;
11348;SDS011;5729;43.570;27.826;2022-10-13T14:51:22;1.88;;;1.63;;
11348;SDS011;5729;43.570;27.826;2022-10-13T14:53:48;3.38;;;1.73;;
11348;SDS011;5729;43.570;27.826;2022-10-13T14:56:16;4.45;;;2.28;;
11348;SDS011;5729;43.570;27.826;2022-10-13T14:58:41;6.82;;;1.60;;
11348;SDS011;5729;43.570;27.826;2022-10-13T15:01:07;7.85;;;2.30;;
11348;SDS011;5729;43.570;27.826;2022-10-13T15:03:32;9.73;;;1.60;;
11348;SDS011;5729;43.570;27.826;2022-10-13T15:05:58;3.83;;;1.60;;
11348;SDS011;5729;43.570;27.826;2022-10-13T15:08:23;2.65;;;1.70;;
11348;SDS011;5729;43.570;27.826;2022-10-13T15:10:57;7.80;;;1.67;;
11348;SDS011;5729;43.570;27.826;2022-10-13T15:13:23;1.73;;;1.52;;
11348;SDS011;5729;43.570;27.826;2022-10-13T15:15:49;9.20;;;1.70;;
11348;SDS011;5729;43.570;27.826;2022-10-13T15:18:14;4.20;;;2.15;;
11348;SDS011;5729;43.570;27.826;2022-10-13T15:20:43;2.67;;;1.60;;
11348;SDS011;5729;43.570;27.826;2022-10-13T15:23:10;3.05;;;1.73;;
11348;SDS011;5729;43.570;27.826;2022-10-13T15:25:36;5.55;;;2.10;;
11348;SDS011;5729;43.570;27.826;2022-10-13T15:28:02;3.35;;;2.10;;
11348;SDS011;5729;43.570;27.826;2022-10-13T15:30:27;4.45;;;1.77;;
11348;SDS011;5729;43.570;27.826;2022-10-13T15:32:52;4.20;;;1.90;;
11348;SDS011;5729;43.570;27.826;2022-10-13T15:35:18;5.30;;;2.47;;
11348;SDS011;5729;43.570;27.826;2022-10-13T15:37:43;7.80;;;2.08;;
11348;SDS011;5729;43.570;27.826;2022-10-13T15:40:09;7.50;;;3.40;;
11348;SDS011;5729;43.570;27.826;2022-10-13T15:42:35;3.88;;;2.67;;
11348;SDS011;5729;43.570;27.826;2022-10-13T15:45:00;10.40;;;3.78;;
11348;SDS011;5729;43.570;27.826;2022-10-13T15:47:26;5.47;;;2.40;;
11348;SDS011;5729;43.570;27.826;2022-10-13T15:49:51;10.32;;;2.22;;
11348;SDS011;5729;43.570;27.826;2022-10-13T15:52:17;15.80;;;2.30;;
11348;SDS011;5729;43.570;27.826;2022-10-13T15:54:42;2.40;;;1.98;;
11348;SDS011;5729;43.570;27.826;2022-10-13T15:57:07;3.45;;;1.70;;
11348;SDS011;5729;43.570;27.826;2022-10-13T15:59:33;6.13;;;2.20;;
11348;SDS011;5729;43.570;27.826;2022-10-13T16:01:58;8.82;;;2.40;;
11348;SDS011;5729;43.570;27.826;2022-10-13T16:04:24;5.63;;;2.00;;
11348;SDS011;5729;43.570;27.826;2022-10-13T16:06:49;4.55;;;1.52;;
11348;SDS011;5729;43.570;27.826;2022-10-13T16:09:15;7.80;;;1.83;;
11348;SDS011;5729;43.570;27.826;2022-10-13T16:11:40;7.15;;;1.90;;
11348;SDS011;5729;43.570;27.826;2022-10-13T16:14:06;3.17;;;1.90;;
11348;SDS011;5729;43.570;27.826;2022-10-13T16:16:31;4.63;;;1.80;;
11348;SDS011;5729;43.570;27.826;2022-10-13T16:18:57;7.60;;;2.05;;
11348;SDS011;5729;43.570;27.826;2022-10-13T16:21:24;5.22;;;2.60;;
11348;SDS011;5729;43.570;27.826;2022-10-13T16:23:50;2.95;;;1.75;;
11348;SDS011;5729;43.570;27.826;2022-10-13T16:26:16;3.45;;;1.80;;
11348;SDS011;5729;43.570;27.826;2022-10-13T16:28:42;9.25;;;2.00;;
11348;SDS011;5729;43.570;27.826;2022-10-13T16:31:09;10.40;;;2.20;;
11348;SDS011;5729;43.570;27.826;2022-10-13T16:33:37;10.48;;;2.42;;
11348;SDS011;5729;43.570;27.826;2022-10-13T16:36:04;9.57;;;2.78;;
11348;SDS011;5729;43.570;27.826;2022-10-13T16:38:34;6.70;;;2.42;;
11348;SDS011;5729;43.570;27.826;2022-10-13T16:41:04;7.32;;;2.40;;
11348;SDS011;5729;43.570;27.826;2022-10-13T16:43:30;8.27;;;2.65;;
11348;SDS011;5729;43.570;27.826;2022-10-13T16:45:57;3.30;;;2.67;;